Time;durP1;ratioP1;P1;durP2;ratioP2;P2;SDS_P1;SDS_P2;PMS_P1;PMS_P2;Temp;Humidity;BMP_temperature;BMP_pressure;BME280_temperature;BME280_humidity;BME280_pressure;Samples;Min_cycle;Max_cycle;Signal;HPM_P1;HPM_P2
2023/04/20 00:01:54;;;;;;;6.45;4.40;;;;;;;;;;5037314;28;20056;-83
2023/04/20 00:04:20;;;;;;;8.25;4.72;;;;;;;;;;5034313;28;20567;-83
2023/04/20 00:06:46;;;;;;;9.30;4.80;;;;;;;;;;5037733;28;20068;-83
2023/04/20 00:09:14;;;;;;;8.60;4.63;;;;;;;;;;5048756;28;20508;-83
2023/04/20 00:11:40;;;;;;;6.45;4.47;;;;;;;;;;5052479;28;20091;-83
2023/04/20 00:14:06;;;;;;;8.18;4.38;;;;;;;;;;5052558;28;20041;-83
2023/04/20 00:16:32;;;;;;;7.03;4.53;;;;;;;;;;5033727;28;20064;-83
2023/04/20 00:18:59;;;;;;;9.60;4.78;;;;;;;;;;5031837;28;20143;-82
2023/04/20 00:21:25;;;;;;;6.43;4.18;;;;;;;;;;5056759;28;20054;-83
2023/04/20 00:23:51;;;;;;;7.45;4.80;;;;;;;;;;5047694;28;20045;-83
2023/04/20 00:26:17;;;;;;;5.45;4.00;;;;;;;;;;5053501;28;20044;-83
2023/04/20 00:28:44;;;;;;;6.38;3.70;;;;;;;;;;5035139;28;20558;-83
2023/04/20 00:31:10;;;;;;;7.55;4.18;;;;;;;;;;5053183;28;20084;-83
2023/04/20 00:33:36;;;;;;;5.30;3.90;;;;;;;;;;5033278;28;20123;-83
2023/04/20 00:36:02;;;;;;;6.30;3.80;;;;;;;;;;5061096;28;20442;-83
2023/04/20 00:38:28;;;;;;;8.07;4.20;;;;;;;;;;5040026;28;20040;-83
2023/04/20 00:40:55;;;;;;;10.25;4.38;;;;;;;;;;5043187;28;20045;-83
2023/04/20 00:43:21;;;;;;;6.10;3.80;;;;;;;;;;5053599;28;20124;-83
2023/04/20 00:45:47;;;;;;;7.28;3.80;;;;;;;;;;5033865;28;20049;-83
2023/04/20 00:48:14;;;;;;;6.63;3.80;;;;;;;;;;5033568;28;20041;-83
2023/04/20 00:50:40;;;;;;;4.80;3.58;;;;;;;;;;5061228;28;20408;-82
2023/04/20 00:53:07;;;;;;;5.88;3.63;;;;;;;;;;5042688;28;20048;-82
2023/04/20 00:55:34;;;;;;;8.60;3.80;;;;;;;;;;5052219;28;20048;-83
2023/04/20 00:58:01;;;;;;;5.90;3.40;;;;;;;;;;5035283;28;20124;-83
2023/04/20 01:00:27;;;;;;;9.85;3.78;;;;;;;;;;5039818;28;20040;-83
2023/04/20 01:02:53;;;;;;;5.57;3.30;;;;;;;;;;5034622;28;20041;-82
2023/04/20 01:05:20;;;;;;;5.43;3.55;;;;;;;;;;5053121;28;20052;-83
2023/04/20 01:07:46;;;;;;;7.15;3.50;;;;;;;;;;5031227;28;20045;-83
2023/04/20 01:10:12;;;;;;;5.25;3.00;;;;;;;;;;5037683;28;20049;-82
2023/04/20 01:12:38;;;;;;;6.10;3.50;;;;;;;;;;5046308;28;20049;-83
2023/04/20 01:15:04;;;;;;;4.75;3.08;;;;;;;;;;5050710;28;20481;-82
2023/04/20 01:17:32;;;;;;;9.10;3.45;;;;;;;;;;5068752;28;20109;-83
2023/04/20 01:19:58;;;;;;;4.28;3.22;;;;;;;;;;5059944;28;20131;-83
2023/04/20 01:22:25;;;;;;;5.78;3.15;;;;;;;;;;5033487;28;20049;-83
2023/04/20 01:24:51;;;;;;;4.75;2.85;;;;;;;;;;5051363;28;20045;-83
2023/04/20 01:27:17;;;;;;;4.28;3.38;;;;;;;;;;5058392;28;20036;-82
2023/04/20 01:29:43;;;;;;;7.00;3.08;;;;;;;;;;5062106;28;20106;-82
2023/04/20 01:32:09;;;;;;;4.88;3.00;;;;;;;;;;5064670;28;20037;-83
2023/04/20 01:34:36;;;;;;;6.00;3.40;;;;;;;;;;5047921;28;20075;-82
2023/04/20 01:37:06;;;;;;;4.45;3.10;;;;;;;;;;5041486;28;20044;-83
2023/04/20 01:39:32;;;;;;;11.50;3.20;;;;;;;;;;5055167;28;20045;-82
2023/04/20 01:42:00;;;;;;;6.10;3.17;;;;;;;;;;5039412;28;20064;-84
2023/04/20 01:44:26;;;;;;;3.97;3.00;;;;;;;;;;5045905;28;20604;-84
2023/04/20 01:46:52;;;;;;;5.68;3.50;;;;;;;;;;5032958;28;20497;-84
2023/04/20 01:49:18;;;;;;;7.22;3.13;;;;;;;;;;5057325;28;20044;-83
2023/04/20 01:51:44;;;;;;;4.82;2.90;;;;;;;;;;5033145;28;20051;-83
2023/04/20 01:54:10;;;;;;;7.15;3.25;;;;;;;;;;5043351;28;20052;-84
2023/04/20 01:56:36;;;;;;;6.32;3.13;;;;;;;;;;5053286;28;20057;-81
2023/04/20 01:59:02;;;;;;;3.97;3.13;;;;;;;;;;5044106;28;20140;-81
2023/04/20 02:01:28;;;;;;;5.72;3.08;;;;;;;;;;5062213;28;22083;-81
2023/04/20 02:03:54;;;;;;;5.82;3.10;;;;;;;;;;5052322;28;20153;-81
2023/04/20 02:06:20;;;;;;;7.20;2.80;;;;;;;;;;5041204;28;20139;-81
2023/04/20 02:08:46;;;;;;;5.03;2.92;;;;;;;;;;5044517;28;20061;-82
2023/04/20 02:11:12;;;;;;;6.13;2.78;;;;;;;;;;5057120;28;20048;-81
2023/04/20 02:13:39;;;;;;;5.30;2.75;;;;;;;;;;5058626;28;20049;-81
2023/04/20 02:16:05;;;;;;;7.57;3.55;;;;;;;;;;5041339;28;20424;-81
2023/04/20 02:18:31;;;;;;;5.00;3.22;;;;;;;;;;5048795;28;20466;-81
2023/04/20 02:20:58;;;;;;;6.25;3.13;;;;;;;;;;5049606;28;20520;-82
2023/04/20 02:23:24;;;;;;;10.02;2.85;;;;;;;;;;5036761;28;20420;-82
2023/04/20 02:25:50;;;;;;;7.35;3.28;;;;;;;;;;5054642;28;20041;-82
2023/04/20 02:28:16;;;;;;;7.80;3.00;;;;;;;;;;5071746;28;20036;-82
2023/04/20 02:30:42;;;;;;;7.90;2.90;;;;;;;;;;5048267;28;20102;-82
2023/04/20 02:33:09;;;;;;;5.30;2.50;;;;;;;;;;5057224;28;20040;-82
2023/04/20 02:35:35;;;;;;;6.00;3.30;;;;;;;;;;5035710;28;20045;-82
2023/04/20 02:38:01;;;;;;;8.65;2.90;;;;;;;;;;5067838;28;20067;-82
2023/04/20 02:40:27;;;;;;;5.47;3.33;;;;;;;;;;5042789;28;20477;-82
2023/04/20 02:42:53;;;;;;;8.98;2.80;;;;;;;;;;5052039;28;20127;-82
2023/04/20 02:45:19;;;;;;;5.07;2.88;;;;;;;;;;5048482;28;20475;-82
2023/04/20 02:47:45;;;;;;;7.47;2.80;;;;;;;;;;5049007;28;20047;-81
2023/04/20 02:50:11;;;;;;;4.88;2.83;;;;;;;;;;5034249;28;20041;-82
2023/04/20 02:52:38;;;;;;;6.28;2.88;;;;;;;;;;5055769;28;20052;-82
2023/04/20 02:55:04;;;;;;;8.68;3.08;;;;;;;;;;5038264;28;20134;-82
2023/04/20 02:57:30;;;;;;;6.03;2.80;;;;;;;;;;5050426;28;20052;-82
2023/04/20 02:59:56;;;;;;;7.22;3.03;;;;;;;;;;5053223;28;20073;-82
2023/04/20 03:02:22;;;;;;;8.68;3.13;;;;;;;;;;5036682;28;20037;-82
2023/04/20 03:04:48;;;;;;;7.70;3.10;;;;;;;;;;5060699;28;20049;-82
2023/04/20 03:07:15;;;;;;;9.75;3.15;;;;;;;;;;5053002;28;20169;-81
2023/04/20 03:09:41;;;;;;;8.75;3.17;;;;;;;;;;5040081;28;20044;-82
2023/04/20 03:12:07;;;;;;;5.10;2.90;;;;;;;;;;5051586;28;20033;-82
2023/04/20 03:14:33;;;;;;;10.80;2.90;;;;;;;;;;5046497;28;20107;-82
2023/04/20 03:16:59;;;;;;;8.70;3.25;;;;;;;;;;5047408;28;20480;-82
2023/04/20 03:19:25;;;;;;;8.07;3.45;;;;;;;;;;5041180;28;20106;-82
2023/04/20 03:21:51;;;;;;;6.45;3.13;;;;;;;;;;5037652;28;20044;-81
2023/04/20 03:24:18;;;;;;;9.77;3.13;;;;;;;;;;5055658;28;20103;-82
2023/04/20 03:26:44;;;;;;;7.22;3.33;;;;;;;;;;5054428;28;20045;-82
2023/04/20 03:29:10;;;;;;;6.10;3.22;;;;;;;;;;5055901;28;20052;-82
2023/04/20 03:31:36;;;;;;;10.68;3.50;;;;;;;;;;5061318;28;20044;-82
2023/04/20 03:34:02;;;;;;;11.98;3.67;;;;;;;;;;5036403;28;20060;-82
2023/04/20 03:36:28;;;;;;;11.40;3.17;;;;;;;;;;5038801;28;20041;-82
2023/04/20 03:38:54;;;;;;;9.90;3.50;;;;;;;;;;5035679;28;20435;-82
2023/04/20 03:41:21;;;;;;;9.10;3.40;;;;;;;;;;5042516;28;20156;-82
2023/04/20 03:43:47;;;;;;;9.27;4.00;;;;;;;;;;5052642;28;20051;-82
2023/04/20 03:46:13;;;;;;;7.63;3.17;;;;;;;;;;5053136;28;20041;-82
2023/04/20 03:48:39;;;;;;;4.90;3.30;;;;;;;;;;5062481;28;20032;-81
2023/04/20 03:51:05;;;;;;;9.75;3.30;;;;;;;;;;5037093;28;20066;-82
2023/04/20 03:53:31;;;;;;;6.13;3.10;;;;;;;;;;5051269;28;20150;-82
2023/04/20 03:55:57;;;;;;;6.13;3.33;;;;;;;;;;5056621;28;20052;-81
2023/04/20 03:58:23;;;;;;;5.45;3.47;;;;;;;;;;5015144;28;20402;-82
2023/04/20 04:00:49;;;;;;;10.65;3.72;;;;;;;;;;5031706;28;20052;-82
2023/04/20 04:03:15;;;;;;;5.43;3.10;;;;;;;;;;5013139;28;20049;-82
2023/04/20 04:05:41;;;;;;;4.13;3.38;;;;;;;;;;5035635;28;20108;-82
2023/04/20 04:08:07;;;;;;;9.48;3.22;;;;;;;;;;5036976;28;20033;-82
2023/04/20 04:10:33;;;;;;;6.47;2.78;;;;;;;;;;5021516;28;20080;-81
2023/04/20 04:12:59;;;;;;;7.90;3.40;;;;;;;;;;5020798;28;20037;-82
2023/04/20 04:15:25;;;;;;;5.28;3.28;;;;;;;;;;5039574;28;20052;-82
2023/04/20 04:17:54;;;;;;;8.55;3.40;;;;;;;;;;5019692;28;20033;-82
2023/04/20 04:20:20;;;;;;;6.75;3.30;;;;;;;;;;5017321;28;20411;-84
2023/04/20 04:22:46;;;;;;;6.82;3.30;;;;;;;;;;5034414;28;20443;-82
2023/04/20 04:25:12;;;;;;;9.30;3.47;;;;;;;;;;5014189;28;20049;-82
2023/04/20 04:27:38;;;;;;;7.65;3.63;;;;;;;;;;5038110;28;20045;-82
2023/04/20 04:30:05;;;;;;;9.07;3.65;;;;;;;;;;5032224;28;20045;-82
2023/04/20 04:32:33;;;;;;;10.13;3.70;;;;;;;;;;5015745;28;20041;-83
2023/04/20 04:35:00;;;;;;;8.00;3.55;;;;;;;;;;5043586;28;20037;-83
2023/04/20 04:37:26;;;;;;;6.03;3.22;;;;;;;;;;5041791;28;20048;-82
2023/04/20 04:39:53;;;;;;;7.97;3.50;;;;;;;;;;5047080;28;20045;-83
2023/04/20 04:42:19;;;;;;;8.55;4.05;;;;;;;;;;5026717;28;20047;-82
2023/04/20 04:44:45;;;;;;;6.30;3.50;;;;;;;;;;5019880;28;20045;-82
2023/04/20 04:47:11;;;;;;;5.97;3.33;;;;;;;;;;5011884;28;20049;-82
2023/04/20 04:49:39;;;;;;;5.72;3.30;;;;;;;;;;5014804;28;20045;-82
2023/04/20 04:52:05;;;;;;;7.25;2.95;;;;;;;;;;5033790;28;20045;-82
2023/04/20 04:54:31;;;;;;;6.53;3.65;;;;;;;;;;5020192;28;20045;-82
2023/04/20 04:56:57;;;;;;;8.52;3.60;;;;;;;;;;5031758;28;20102;-82
2023/04/20 04:59:23;;;;;;;6.28;3.42;;;;;;;;;;5050747;28;20055;-82
2023/04/20 05:01:49;;;;;;;6.00;3.50;;;;;;;;;;5059411;28;20214;-82
2023/04/20 05:04:15;;;;;;;6.45;3.40;;;;;;;;;;5051573;28;20037;-82
2023/04/20 05:06:41;;;;;;;7.95;3.45;;;;;;;;;;5048104;28;20124;-82
2023/04/20 05:09:08;;;;;;;8.27;4.00;;;;;;;;;;5053163;28;20100;-82
2023/04/20 05:11:34;;;;;;;14.95;7.90;;;;;;;;;;5052589;28;20049;-82
2023/04/20 05:14:01;;;;;;;7.03;3.33;;;;;;;;;;5034836;28;20041;-82
2023/04/20 05:16:27;;;;;;;12.18;4.57;;;;;;;;;;5033574;28;20049;-82
2023/04/20 05:18:53;;;;;;;6.38;3.72;;;;;;;;;;5055724;28;20546;-81
2023/04/20 05:21:19;;;;;;;11.63;3.83;;;;;;;;;;5035132;28;20055;-81
2023/04/20 05:23:45;;;;;;;14.07;4.00;;;;;;;;;;5035528;28;20492;-80
2023/04/20 05:26:11;;;;;;;10.57;4.00;;;;;;;;;;5058969;28;20060;-80
2023/04/20 05:28:37;;;;;;;11.63;4.75;;;;;;;;;;5066184;28;20032;-80
2023/04/20 05:31:04;;;;;;;10.85;4.60;;;;;;;;;;5063810;28;20119;-80
2023/04/20 05:33:30;;;;;;;7.35;3.60;;;;;;;;;;5056753;28;20044;-80
2023/04/20 05:35:56;;;;;;;8.43;3.67;;;;;;;;;;5052563;28;20053;-80
2023/04/20 05:38:22;;;;;;;8.68;3.65;;;;;;;;;;5065484;28;20041;-81
2023/04/20 05:40:48;;;;;;;10.77;3.88;;;;;;;;;;5067675;28;20056;-81
2023/04/20 05:43:16;;;;;;;10.20;3.72;;;;;;;;;;5041299;28;20045;-81
2023/04/20 05:45:42;;;;;;;7.57;3.63;;;;;;;;;;5049547;28;20061;-82
2023/04/20 05:48:08;;;;;;;7.15;3.28;;;;;;;;;;5031820;28;20076;-81
2023/04/20 05:50:34;;;;;;;11.32;3.38;;;;;;;;;;5047260;28;20091;-82
2023/04/20 05:53:00;;;;;;;7.80;3.45;;;;;;;;;;5053102;28;20091;-82
2023/04/20 05:55:26;;;;;;;5.32;3.08;;;;;;;;;;5040261;28;20087;-82
2023/04/20 05:57:52;;;;;;;7.65;3.40;;;;;;;;;;5053490;28;20053;-82
2023/04/20 06:00:18;;;;;;;12.75;4.13;;;;;;;;;;5065981;28;20385;-82
2023/04/20 06:02:44;;;;;;;7.35;2.95;;;;;;;;;;5046513;28;20041;-82
2023/04/20 06:05:10;;;;;;;9.75;3.67;;;;;;;;;;5058658;28;20036;-82
2023/04/20 06:07:37;;;;;;;9.05;3.72;;;;;;;;;;5058695;28;20045;-82
2023/04/20 06:10:03;;;;;;;7.88;3.85;;;;;;;;;;4987188;28;20742;-83
2023/04/20 06:12:30;;;;;;;9.00;3.78;;;;;;;;;;5033086;28;20052;-82
2023/04/20 06:14:56;;;;;;;7.28;3.33;;;;;;;;;;5055268;28;20059;-82
2023/04/20 06:17:22;;;;;;;11.23;4.30;;;;;;;;;;5042783;28;20041;-83
2023/04/20 06:19:48;;;;;;;8.60;3.90;;;;;;;;;;5065830;28;20048;-83
2023/04/20 06:22:15;;;;;;;11.50;3.80;;;;;;;;;;5052104;28;20059;-83
2023/04/20 06:24:41;;;;;;;6.97;3.50;;;;;;;;;;5051131;28;20052;-83
2023/04/20 06:27:08;;;;;;;9.55;4.13;;;;;;;;;;5047342;28;20045;-83
2023/04/20 06:29:37;;;;;;;7.25;3.78;;;;;;;;;;5051759;28;20041;-83
2023/04/20 06:32:03;;;;;;;11.52;4.00;;;;;;;;;;5037155;28;20045;-83
2023/04/20 06:34:29;;;;;;;6.60;3.80;;;;;;;;;;5041084;28;20135;-83
2023/04/20 06:36:55;;;;;;;7.95;4.15;;;;;;;;;;5053991;28;20508;-83
2023/04/20 06:39:22;;;;;;;6.53;3.28;;;;;;;;;;5044893;28;20041;-83
2023/04/20 06:41:47;;;;;;;8.65;4.00;;;;;;;;;;5033253;28;20478;-84
2023/04/20 06:44:14;;;;;;;7.35;4.05;;;;;;;;;;5063985;28;20037;-84
2023/04/20 06:46:40;;;;;;;7.22;3.75;;;;;;;;;;5035062;28;20086;-84
2023/04/20 06:49:06;;;;;;;8.30;3.38;;;;;;;;;;5044221;28;20033;-84
2023/04/20 06:51:32;;;;;;;7.00;3.67;;;;;;;;;;5046753;28;20098;-84
2023/04/20 06:53:58;;;;;;;8.50;3.75;;;;;;;;;;5064737;28;20132;-84
2023/04/20 06:56:24;;;;;;;10.15;3.50;;;;;;;;;;5042679;28;20127;-83
2023/04/20 06:58:50;;;;;;;11.23;3.85;;;;;;;;;;5054720;28;20500;-84
2023/04/20 07:01:16;;;;;;;7.20;4.22;;;;;;;;;;5057393;28;20041;-81
2023/04/20 07:03:42;;;;;;;7.63;3.33;;;;;;;;;;5056779;28;20369;-83
2023/04/20 07:06:10;;;;;;;5.20;3.50;;;;;;;;;;5045164;28;20485;-82
2023/04/20 07:08:36;;;;;;;7.43;3.38;;;;;;;;;;5038457;28;20110;-78
2023/04/20 07:11:02;;;;;;;7.07;3.10;;;;;;;;;;5039730;28;20036;-81
2023/04/20 07:13:30;;;;;;;8.75;3.17;;;;;;;;;;5068483;28;20072;-77
2023/04/20 07:16:00;;;;;;;7.45;3.38;;;;;;;;;;5049508;28;20053;-77
2023/04/20 07:18:26;;;;;;;10.43;3.05;;;;;;;;;;5044774;28;20477;-77
2023/04/20 07:20:52;;;;;;;10.70;3.58;;;;;;;;;;5056740;28;20102;-78
2023/04/20 07:23:19;;;;;;;9.35;3.55;;;;;;;;;;5054475;28;20041;-78
2023/04/20 07:25:45;;;;;;;6.43;3.40;;;;;;;;;;5038494;28;20056;-77
2023/04/20 07:28:11;;;;;;;8.45;3.65;;;;;;;;;;5037374;28;20044;-77
2023/04/20 07:30:37;;;;;;;5.55;3.30;;;;;;;;;;5038591;28;20481;-81
2023/04/20 07:33:03;;;;;;;5.28;3.00;;;;;;;;;;5055355;28;20056;-82
2023/04/20 07:35:29;;;;;;;8.30;3.30;;;;;;;;;;5057339;28;20485;-79
2023/04/20 07:37:55;;;;;;;7.13;3.15;;;;;;;;;;5048998;28;20045;-81
2023/04/20 07:40:21;;;;;;;11.18;3.25;;;;;;;;;;5037609;28;20049;-80
2023/04/20 07:42:47;;;;;;;14.77;4.40;;;;;;;;;;5039651;28;20088;-80
2023/04/20 07:45:13;;;;;;;7.50;2.97;;;;;;;;;;5056493;28;20037;-80
2023/04/20 07:47:40;;;;;;;10.48;3.15;;;;;;;;;;5033556;28;20044;-79
2023/04/20 07:50:06;;;;;;;8.07;3.50;;;;;;;;;;5051624;28;20049;-81
2023/04/20 07:52:33;;;;;;;6.25;3.45;;;;;;;;;;5046104;28;20052;-81
2023/04/20 07:54:59;;;;;;;7.30;3.40;;;;;;;;;;5039224;28;20049;-79
2023/04/20 07:57:25;;;;;;;4.03;2.72;;;;;;;;;;5061515;28;20064;-79
2023/04/20 07:59:52;;;;;;;5.63;3.20;;;;;;;;;;5057144;28;20055;-77
2023/04/20 08:02:18;;;;;;;4.72;3.40;;;;;;;;;;5057591;28;20125;-77
2023/04/20 08:04:45;;;;;;;5.85;3.47;;;;;;;;;;5046792;28;20040;-78
2023/04/20 08:07:11;;;;;;;6.38;3.58;;;;;;;;;;5054398;28;20044;-78
2023/04/20 08:09:37;;;;;;;6.07;3.40;;;;;;;;;;5070168;28;20125;-77
2023/04/20 08:12:03;;;;;;;7.13;3.35;;;;;;;;;;5070751;28;20075;-78
2023/04/20 08:14:29;;;;;;;5.97;3.33;;;;;;;;;;5048378;28;20045;-78
2023/04/20 08:16:55;;;;;;;7.07;2.92;;;;;;;;;;5042288;28;20033;-78
2023/04/20 08:19:21;;;;;;;6.55;3.58;;;;;;;;;;5058656;28;20053;-78
2023/04/20 08:21:49;;;;;;;5.72;3.47;;;;;;;;;;5054279;28;20063;-79
2023/04/20 08:24:21;;;;;;;;;;;;;;;;;;5060141;28;20068;-78
2023/04/20 08:26:47;;;;;;;7.78;3.80;;;;;;;;;;5041503;28;19921;-78
2023/04/20 08:29:13;;;;;;;5.78;3.47;;;;;;;;;;5041762;28;20461;-78
2023/04/20 08:31:39;;;;;;;7.13;3.75;;;;;;;;;;5042695;28;20049;-78
2023/04/20 08:34:05;;;;;;;6.78;3.42;;;;;;;;;;5057299;28;20431;-78
2023/04/20 08:36:31;;;;;;;6.10;3.67;;;;;;;;;;5049240;28;20107;-78
2023/04/20 08:39:05;;;;;;;9.48;5.07;;;;;;;;;;5057784;28;20047;-77
2023/04/20 08:41:31;;;;;;;5.25;3.70;;;;;;;;;;5054479;28;20076;-78
2023/04/20 08:43:57;;;;;;;7.22;4.38;;;;;;;;;;5034225;28;20130;-78
2023/04/20 08:46:24;;;;;;;6.38;4.15;;;;;;;;;;5040185;28;20095;-78
2023/04/20 08:48:50;;;;;;;6.32;4.18;;;;;;;;;;5052901;28;20073;-78
2023/04/20 08:51:17;;;;;;;7.15;4.43;;;;;;;;;;5040306;28;20067;-79
2023/04/20 08:53:43;;;;;;;8.32;4.53;;;;;;;;;;5047389;28;20105;-78
2023/04/20 08:56:09;;;;;;;9.43;4.50;;;;;;;;;;5051532;28;20045;-77
2023/04/20 08:58:40;;;;;;;8.93;4.60;;;;;;;;;;5038080;28;20126;-77
2023/04/20 09:01:06;;;;;;;6.72;4.18;;;;;;;;;;5045233;28;20044;-77
2023/04/20 09:03:33;;;;;;;9.68;4.28;;;;;;;;;;5054811;28;20068;-76
2023/04/20 09:05:59;;;;;;;7.07;3.53;;;;;;;;;;5057751;28;20128;-77
2023/04/20 09:08:35;;;;;;;7.03;4.63;;;;;;;;;;5058249;28;20770;-76
2023/04/20 09:11:01;;;;;;;12.05;5.13;;;;;;;;;;5052717;28;20124;-76
2023/04/20 09:13:28;;;;;;;7.97;4.47;;;;;;;;;;5042804;28;20504;-76
2023/04/20 09:15:54;;;;;;;6.35;4.10;;;;;;;;;;5034964;28;20095;-76
2023/04/20 09:18:20;;;;;;;8.10;4.63;;;;;;;;;;5042304;28;20033;-76
2023/04/20 09:20:46;;;;;;;7.18;4.28;;;;;;;;;;5048972;28;20084;-75
2023/04/20 09:23:20;;;;;;;8.40;4.75;;;;;;;;;;5039956;28;20090;-75
2023/04/20 09:25:46;;;;;;;8.40;4.90;;;;;;;;;;5039111;28;20041;-76
2023/04/20 09:28:13;;;;;;;10.80;6.82;;;;;;;;;;5058076;28;20497;-76
2023/04/20 09:30:44;;;;;;;8.68;4.90;;;;;;;;;;5040523;28;20503;-76
2023/04/20 09:33:11;;;;;;;7.82;4.78;;;;;;;;;;5056044;28;20040;-76
2023/04/20 09:35:44;;;;;;;8.90;4.68;;;;;;;;;;5042447;28;20049;-76
2023/04/20 09:38:11;;;;;;;8.48;4.80;;;;;;;;;;5063597;28;20047;-76
2023/04/20 09:40:37;;;;;;;8.88;4.93;;;;;;;;;;5056811;28;20045;-76
2023/04/20 09:43:06;;;;;;;371.42;61.25;;;;;;;;;;5049551;28;20049;-76
2023/04/20 09:45:33;;;;;;;229.00;32.42;;;;;;;;;;5033862;28;20052;-76
2023/04/20 09:47:59;;;;;;;11.75;4.97;;;;;;;;;;5060534;28;20039;-76
2023/04/20 09:50:26;;;;;;;9.70;5.35;;;;;;;;;;5035060;28;20060;-76
2023/04/20 09:52:52;;;;;;;8.90;5.70;;;;;;;;;;5040714;28;20037;-76
2023/04/20 09:55:18;;;;;;;9.85;5.65;;;;;;;;;;5056318;28;20123;-77
2023/04/20 09:57:45;;;;;;;10.60;6.10;;;;;;;;;;5041584;28;20132;-77
2023/04/20 10:00:11;;;;;;;10.43;6.22;;;;;;;;;;5050000;28;20047;-78
2023/04/20 10:02:38;;;;;;;9.48;5.57;;;;;;;;;;5034720;28;20526;-78
2023/04/20 10:05:06;;;;;;;9.48;5.80;;;;;;;;;;5048232;28;20148;-78
2023/04/20 10:07:33;;;;;;;9.30;5.60;;;;;;;;;;5052840;28;20060;-78
2023/04/20 10:10:05;;;;;;;9.95;6.13;;;;;;;;;;5058007;28;20045;-77
2023/04/20 10:12:31;;;;;;;7.63;5.35;;;;;;;;;;5050558;28;20075;-78
2023/04/20 10:14:59;;;;;;;10.80;5.80;;;;;;;;;;5044224;28;20037;-78
2023/04/20 10:17:32;;;;;;;10.15;5.32;;;;;;;;;;5057663;28;21807;-77
2023/04/20 10:19:58;;;;;;;11.23;5.30;;;;;;;;;;5060344;28;20076;-77
2023/04/20 10:22:29;;;;;;;9.25;5.97;;;;;;;;;;5059199;28;20402;-77
2023/04/20 10:24:55;;;;;;;9.43;5.35;;;;;;;;;;5044687;28;20103;-77
2023/04/20 10:27:22;;;;;;;8.00;5.50;;;;;;;;;;5062411;28;20419;-77
2023/04/20 10:29:48;;;;;;;8.48;5.45;;;;;;;;;;5053581;28;20041;-77
2023/04/20 10:32:40;;;;;;;10.65;6.05;;;;;;;;;;5038344;28;20048;-77
2023/04/20 10:35:07;;;;;;;7.13;5.45;;;;;;;;;;5045897;28;21575;-78
2023/04/20 10:37:34;;;;;;;8.73;5.90;;;;;;;;;;5061410;28;20081;-78
2023/04/20 10:40:00;;;;;;;10.18;5.65;;;;;;;;;;5059486;28;20037;-77
2023/04/20 10:42:28;;;;;;;10.90;6.03;;;;;;;;;;5057113;28;20055;-79
2023/04/20 10:44:54;;;;;;;10.05;5.47;;;;;;;;;;5048362;28;20448;-79
2023/04/20 10:47:27;;;;;;;11.35;6.38;;;;;;;;;;5055128;28;20131;-79
2023/04/20 10:49:53;;;;;;;10.57;6.72;;;;;;;;;;5039692;28;20950;-79
2023/04/20 10:52:33;;;;;;;8.85;5.25;;;;;;;;;;5065446;28;20484;-80
2023/04/20 10:55:00;;;;;;;10.30;6.00;;;;;;;;;;5040130;28;20396;-78
2023/04/20 10:57:26;;;;;;;10.95;7.18;;;;;;;;;;5052423;28;20056;-79
2023/04/20 10:59:52;;;;;;;6.40;5.20;;;;;;;;;;5040663;28;20048;-79
2023/04/20 11:02:18;;;;;;;10.32;5.70;;;;;;;;;;5041471;28;20036;-79
2023/04/20 11:04:43;;;;;;;8.43;6.38;;;;;;;;;;5039502;28;20387;-79
2023/04/20 11:07:13;;;;;;;10.43;5.60;;;;;;;;;;5037079;28;20049;-79
2023/04/20 11:09:42;;;;;;;11.98;5.80;;;;;;;;;;5060433;28;20040;-80
2023/04/20 11:12:10;;;;;;;7.63;5.82;;;;;;;;;;5034163;28;20156;-79
2023/04/20 11:14:49;;;;;;;10.52;5.95;;;;;;;;;;5038551;28;20040;-79
2023/04/20 11:17:15;;;;;;;9.15;5.63;;;;;;;;;;5054748;28;20048;-79
2023/04/20 11:19:41;;;;;;;8.20;5.43;;;;;;;;;;5055495;28;20400;-79
2023/04/20 11:22:07;;;;;;;8.75;5.43;;;;;;;;;;5039479;28;20108;-79
2023/04/20 11:24:33;;;;;;;9.38;5.50;;;;;;;;;;5044920;28;20132;-80
2023/04/20 11:27:01;;;;;;;8.98;5.50;;;;;;;;;;5047930;28;20445;-79
2023/04/20 11:29:35;;;;;;;9.52;5.45;;;;;;;;;;5036695;28;20194;-79
2023/04/20 11:32:05;;;;;;;7.50;5.53;;;;;;;;;;5048068;28;20409;-79
2023/04/20 11:34:32;;;;;;;9.63;5.68;;;;;;;;;;5055771;28;20067;-79
2023/04/20 11:37:03;;;;;;;13.57;6.43;;;;;;;;;;5056744;28;20531;-79
2023/04/20 11:39:29;;;;;;;8.82;5.85;;;;;;;;;;5067581;28;20040;-79
2023/04/20 11:41:56;;;;;;;8.35;5.60;;;;;;;;;;5049630;28;20056;-80
2023/04/20 11:44:22;;;;;;;8.98;6.25;;;;;;;;;;5049024;28;20349;-79
2023/04/20 11:46:49;;;;;;;9.57;5.47;;;;;;;;;;5055204;28;20048;-81
2023/04/20 11:49:18;;;;;;;7.35;6.05;;;;;;;;;;5049967;28;20527;-80
2023/04/20 11:51:45;;;;;;;8.20;5.70;;;;;;;;;;5061875;28;20049;-81
2023/04/20 11:54:12;;;;;;;10.00;5.20;;;;;;;;;;5046653;28;20044;-81
2023/04/20 11:56:38;;;;;;;8.57;5.38;;;;;;;;;;5033098;28;20153;-80
2023/04/20 11:59:04;;;;;;;6.80;5.57;;;;;;;;;;5033553;28;20037;-80
2023/04/20 12:01:32;;;;;;;10.05;6.40;;;;;;;;;;5056571;28;20073;-80
2023/04/20 12:04:00;;;;;;;8.27;6.10;;;;;;;;;;5036792;28;20079;-81
2023/04/20 12:06:27;;;;;;;9.15;6.10;;;;;;;;;;5038889;28;20080;-81
2023/04/20 12:08:54;;;;;;;16.67;11.95;;;;;;;;;;5053737;28;20044;-81
2023/04/20 12:11:20;;;;;;;16.15;9.77;;;;;;;;;;5054355;28;20047;-81
2023/04/20 12:13:46;;;;;;;8.77;6.70;;;;;;;;;;5060206;28;20040;-81
2023/04/20 12:16:12;;;;;;;9.43;7.38;;;;;;;;;;5059710;28;20050;-81
2023/04/20 12:18:38;;;;;;;8.85;6.40;;;;;;;;;;5042190;28;20049;-81
2023/04/20 12:21:05;;;;;;;10.80;6.63;;;;;;;;;;5042011;28;20045;-80
2023/04/20 12:23:32;;;;;;;10.65;6.65;;;;;;;;;;5049883;28;20056;-81
2023/04/20 12:25:58;;;;;;;8.93;6.75;;;;;;;;;;5044942;28;20078;-81
2023/04/20 12:28:24;;;;;;;13.27;6.72;;;;;;;;;;5041192;28;20128;-80
2023/04/20 12:30:53;;;;;;;9.55;6.63;;;;;;;;;;5070171;28;20098;-81
2023/04/20 12:33:19;;;;;;;9.60;6.43;;;;;;;;;;5068561;28;20036;-80
2023/04/20 12:35:45;;;;;;;7.28;6.40;;;;;;;;;;5060413;28;20139;-81
2023/04/20 12:38:11;;;;;;;9.35;6.70;;;;;;;;;;5033519;28;20133;-80
2023/04/20 12:40:37;;;;;;;8.32;6.07;;;;;;;;;;5035459;28;20115;-81
2023/04/20 12:43:03;;;;;;;10.88;6.80;;;;;;;;;;5037396;28;20100;-80
2023/04/20 12:45:30;;;;;;;10.95;7.00;;;;;;;;;;5049113;28;20043;-81
2023/04/20 12:47:57;;;;;;;7.50;6.55;;;;;;;;;;5050970;28;20091;-80
2023/04/20 12:50:23;;;;;;;9.18;6.38;;;;;;;;;;5056334;28;20055;-80
2023/04/20 12:52:50;;;;;;;10.25;6.63;;;;;;;;;;5038245;28;20087;-80
2023/04/20 12:55:17;;;;;;;9.50;7.10;;;;;;;;;;5033997;28;20061;-80
2023/04/20 12:57:43;;;;;;;10.93;6.50;;;;;;;;;;5055000;28;20089;-81
2023/04/20 13:00:11;;;;;;;8.07;6.35;;;;;;;;;;5035116;28;20048;-81
2023/04/20 13:02:37;;;;;;;10.02;6.57;;;;;;;;;;5051035;28;20094;-81
2023/04/20 13:05:03;;;;;;;10.85;6.80;;;;;;;;;;5032411;28;20040;-81
2023/04/20 13:07:30;;;;;;;10.65;6.65;;;;;;;;;;5038643;28;20500;-82
2023/04/20 13:09:56;;;;;;;9.23;7.30;;;;;;;;;;5037697;28;20123;-80
2023/04/20 13:12:22;;;;;;;10.77;6.97;;;;;;;;;;5039740;28;20045;-81
2023/04/20 13:14:48;;;;;;;9.80;6.72;;;;;;;;;;5066446;28;20041;-82
2023/04/20 13:17:14;;;;;;;11.77;6.88;;;;;;;;;;5052264;28;20033;-81
2023/04/20 13:19:40;;;;;;;8.90;5.60;;;;;;;;;;5057532;28;20110;-80
2023/04/20 13:22:06;;;;;;;8.18;6.28;;;;;;;;;;5060718;28;20357;-79
2023/04/20 13:24:32;;;;;;;7.70;6.60;;;;;;;;;;5043980;28;20123;-81
2023/04/20 13:26:58;;;;;;;9.18;7.07;;;;;;;;;;5052974;28;20041;-81
2023/04/20 13:29:25;;;;;;;8.70;6.38;;;;;;;;;;5033465;28;20056;-81
2023/04/20 13:31:51;;;;;;;8.63;6.53;;;;;;;;;;5062964;28;20046;-81
2023/04/20 13:34:17;;;;;;;13.50;7.47;;;;;;;;;;5045542;28;20489;-81
2023/04/20 13:36:44;;;;;;;10.95;7.05;;;;;;;;;;5042002;28;20049;-81
2023/04/20 13:39:11;;;;;;;9.07;6.65;;;;;;;;;;5046549;28;20036;-81
2023/04/20 13:41:37;;;;;;;11.68;7.47;;;;;;;;;;5033491;28;20048;-81
2023/04/20 13:44:04;;;;;;;10.75;6.95;;;;;;;;;;5038466;28;20128;-79
2023/04/20 13:46:30;;;;;;;10.18;7.20;;;;;;;;;;5030724;28;20283;-81
2023/04/20 13:48:56;;;;;;;9.63;7.15;;;;;;;;;;5053813;28;20047;-81
2023/04/20 13:51:22;;;;;;;9.82;7.45;;;;;;;;;;5039849;28;20118;-81
2023/04/20 13:53:48;;;;;;;9.88;7.07;;;;;;;;;;5058946;28;20388;-81
2023/04/20 13:56:15;;;;;;;13.43;7.70;;;;;;;;;;5064492;28;20498;-80
2023/04/20 13:58:41;;;;;;;11.85;7.57;;;;;;;;;;5042579;28;20053;-81
2023/04/20 14:01:08;;;;;;;12.50;7.13;;;;;;;;;;5042459;28;20045;-81
2023/04/20 14:03:34;;;;;;;8.80;7.18;;;;;;;;;;5066654;28;20044;-82
2023/04/20 14:06:00;;;;;;;9.55;8.10;;;;;;;;;;5040195;28;20072;-82
2023/04/20 14:08:26;;;;;;;9.75;7.13;;;;;;;;;;5042975;28;20037;-82
2023/04/20 14:10:52;;;;;;;8.02;6.57;;;;;;;;;;5055826;28;20040;-82
2023/04/20 14:13:18;;;;;;;13.13;7.30;;;;;;;;;;5039981;28;20049;-81
2023/04/20 14:15:44;;;;;;;8.65;6.38;;;;;;;;;;5034529;28;20042;-81
2023/04/20 14:18:10;;;;;;;9.20;6.60;;;;;;;;;;5057150;28;20454;-82
2023/04/20 14:20:36;;;;;;;7.65;6.30;;;;;;;;;;5036590;28;20037;-82
2023/04/20 14:23:02;;;;;;;7.82;6.43;;;;;;;;;;5070216;28;20040;-82
2023/04/20 14:25:28;;;;;;;7.47;6.15;;;;;;;;;;5062887;28;20094;-83
2023/04/20 14:27:54;;;;;;;7.30;6.10;;;;;;;;;;5061031;28;20080;-83
2023/04/20 14:30:20;;;;;;;7.32;6.05;;;;;;;;;;5063685;28;20428;-83
2023/04/20 14:32:56;;;;;;;7.03;6.28;;;;;;;;;;5052347;28;20037;-84
2023/04/20 14:35:23;;;;;;;7.07;6.32;;;;;;;;;;5045249;28;20063;-83
2023/04/20 14:37:49;;;;;;;7.50;5.95;;;;;;;;;;5052192;28;20099;-83